sensor_id;sensor_type;location;lat;lon;timestamp;P1;durP1;ratioP1;P2;durP2;ratioP2
65271;SDS011;51868;48.812;8.198;2023-05-10T00:02:15;1.48;;;1.10;;
65271;SDS011;51868;48.812;8.198;2023-05-10T00:04:43;1.88;;;0.98;;
65271;SDS011;51868;48.812;8.198;2023-05-10T00:07:11;1.67;;;1.05;;
65271;SDS011;51868;48.812;8.198;2023-05-10T00:09:39;2.33;;;1.00;;
65271;SDS011;51868;48.812;8.198;2023-05-10T00:12:06;2.65;;;1.05;;
65271;SDS011;51868;48.812;8.198;2023-05-10T00:14:36;1.23;;;0.90;;
65271;SDS011;51868;48.812;8.198;2023-05-10T00:17:03;3.03;;;1.23;;
65271;SDS011;51868;48.812;8.198;2023-05-10T00:19:31;0.95;;;0.85;;
65271;SDS011;51868;48.812;8.198;2023-05-10T00:21:59;3.13;;;1.00;;
65271;SDS011;51868;48.812;8.198;2023-05-10T00:24:29;2.03;;;1.00;;
65271;SDS011;51868;48.812;8.198;2023-05-10T00:26:57;7.10;;;1.38;;
65271;SDS011;51868;48.812;8.198;2023-05-10T00:29:24;2.45;;;1.05;;
65271;SDS011;51868;48.812;8.198;2023-05-10T00:31:55;1.17;;;1.00;;
65271;SDS011;51868;48.812;8.198;2023-05-10T00:34:23;3.33;;;1.10;;
65271;SDS011;51868;48.812;8.198;2023-05-10T00:36:51;2.17;;;0.90;;
65271;SDS011;51868;48.812;8.198;2023-05-10T00:39:19;1.25;;;0.98;;
65271;SDS011;51868;48.812;8.198;2023-05-10T00:41:47;1.40;;;1.02;;
65271;SDS011;51868;48.812;8.198;2023-05-10T00:44:15;1.00;;;0.82;;
65271;SDS011;51868;48.812;8.198;2023-05-10T00:46:44;7.65;;;1.00;;
65271;SDS011;51868;48.812;8.198;2023-05-10T00:49:14;1.00;;;0.90;;
65271;SDS011;51868;48.812;8.198;2023-05-10T00:51:42;2.38;;;0.80;;
65271;SDS011;51868;48.812;8.198;2023-05-10T00:54:10;0.80;;;0.80;;
65271;SDS011;51868;48.812;8.198;2023-05-10T00:56:39;0.90;;;0.80;;
65271;SDS011;51868;48.812;8.198;2023-05-10T00:59:07;1.00;;;0.80;;
65271;SDS011;51868;48.812;8.198;2023-05-10T01:01:36;1.27;;;0.80;;
65271;SDS011;51868;48.812;8.198;2023-05-10T01:04:05;1.95;;;0.90;;
65271;SDS011;51868;48.812;8.198;2023-05-10T01:06:34;1.33;;;0.90;;
65271;SDS011;51868;48.812;8.198;2023-05-10T01:12:52;5.60;;;1.00;;
65271;SDS011;51868;48.812;8.198;2023-05-10T01:15:20;1.30;;;1.10;;
65271;SDS011;51868;48.812;8.198;2023-05-10T01:17:49;1.45;;;0.80;;
65271;SDS011;51868;48.812;8.198;2023-05-10T01:20:17;2.15;;;1.00;;
65271;SDS011;51868;48.812;8.198;2023-05-10T01:23:03;1.27;;;0.90;;
65271;SDS011;51868;48.812;8.198;2023-05-10T01:28:53;2.10;;;0.90;;
65271;SDS011;51868;48.812;8.198;2023-05-10T01:31:40;2.17;;;1.10;;
65271;SDS011;51868;48.812;8.198;2023-05-10T01:34:34;1.73;;;1.42;;
65271;SDS011;51868;48.812;8.198;2023-05-10T01:37:05;2.60;;;1.63;;
65271;SDS011;51868;48.812;8.198;2023-05-10T01:39:37;1.38;;;1.17;;
65271;SDS011;51868;48.812;8.198;2023-05-10T01:42:11;1.50;;;1.40;;
65271;SDS011;51868;48.812;8.198;2023-05-10T01:44:45;2.50;;;1.20;;
65271;SDS011;51868;48.812;8.198;2023-05-10T01:47:24;1.80;;;1.42;;
65271;SDS011;51868;48.812;8.198;2023-05-10T01:49:56;1.58;;;1.48;;
65271;SDS011;51868;48.812;8.198;2023-05-10T01:52:32;1.92;;;1.42;;
65271;SDS011;51868;48.812;8.198;2023-05-10T01:55:01;2.20;;;1.55;;
65271;SDS011;51868;48.812;8.198;2023-05-10T01:57:32;2.60;;;1.45;;
65271;SDS011;51868;48.812;8.198;2023-05-10T02:00:02;4.50;;;2.22;;
65271;SDS011;51868;48.812;8.198;2023-05-10T02:02:34;2.78;;;1.50;;
65271;SDS011;51868;48.812;8.198;2023-05-10T02:05:05;3.67;;;1.63;;
65271;SDS011;51868;48.812;8.198;2023-05-10T02:07:35;2.33;;;1.58;;
65271;SDS011;51868;48.812;8.198;2023-05-10T02:10:04;2.05;;;1.83;;
65271;SDS011;51868;48.812;8.198;2023-05-10T02:12:34;3.33;;;1.80;;
65271;SDS011;51868;48.812;8.198;2023-05-10T02:15:04;1.98;;;1.30;;
65271;SDS011;51868;48.812;8.198;2023-05-10T02:17:38;1.48;;;1.38;;
65271;SDS011;51868;48.812;8.198;2023-05-10T02:20:07;2.15;;;1.52;;
65271;SDS011;51868;48.812;8.198;2023-05-10T02:22:36;2.03;;;1.83;;
65271;SDS011;51868;48.812;8.198;2023-05-10T02:25:05;1.80;;;1.48;;
65271;SDS011;51868;48.812;8.198;2023-05-10T02:27:36;1.58;;;1.40;;
65271;SDS011;51868;48.812;8.198;2023-05-10T02:30:05;2.50;;;1.50;;
65271;SDS011;51868;48.812;8.198;2023-05-10T02:32:35;3.28;;;1.67;;
65271;SDS011;51868;48.812;8.198;2023-05-10T02:35:05;1.90;;;1.63;;
65271;SDS011;51868;48.812;8.198;2023-05-10T02:37:35;1.75;;;1.55;;
65271;SDS011;51868;48.812;8.198;2023-05-10T02:40:05;1.65;;;1.48;;
65271;SDS011;51868;48.812;8.198;2023-05-10T02:42:35;3.88;;;1.90;;
65271;SDS011;51868;48.812;8.198;2023-05-10T02:45:07;2.35;;;1.77;;
65271;SDS011;51868;48.812;8.198;2023-05-10T02:47:39;2.53;;;1.60;;
65271;SDS011;51868;48.812;8.198;2023-05-10T02:50:08;2.20;;;1.60;;
65271;SDS011;51868;48.812;8.198;2023-05-10T02:52:39;2.33;;;1.50;;
65271;SDS011;51868;48.812;8.198;2023-05-10T02:55:09;1.73;;;1.52;;
65271;SDS011;51868;48.812;8.198;2023-05-10T02:57:40;4.70;;;1.85;;
65271;SDS011;51868;48.812;8.198;2023-05-10T03:00:12;1.85;;;1.40;;
65271;SDS011;51868;48.812;8.198;2023-05-10T03:02:42;1.92;;;1.40;;
65271;SDS011;51868;48.812;8.198;2023-05-10T03:05:09;3.03;;;1.58;;
65271;SDS011;51868;48.812;8.198;2023-05-10T03:07:37;3.25;;;1.40;;
65271;SDS011;51868;48.812;8.198;2023-05-10T03:10:05;2.00;;;1.40;;
65271;SDS011;51868;48.812;8.198;2023-05-10T03:12:39;1.92;;;1.30;;
65271;SDS011;51868;48.812;8.198;2023-05-10T03:15:17;1.40;;;1.30;;
65271;SDS011;51868;48.812;8.198;2023-05-10T03:17:55;1.75;;;1.50;;
65271;SDS011;51868;48.812;8.198;2023-05-10T03:20:29;2.83;;;1.45;;
65271;SDS011;51868;48.812;8.198;2023-05-10T03:23:04;1.60;;;1.50;;
65271;SDS011;51868;48.812;8.198;2023-05-10T03:25:39;2.55;;;1.83;;
65271;SDS011;51868;48.812;8.198;2023-05-10T03:28:10;3.60;;;1.50;;
65271;SDS011;51868;48.812;8.198;2023-05-10T03:30:38;1.73;;;1.33;;
65271;SDS011;51868;48.812;8.198;2023-05-10T03:33:09;2.78;;;1.50;;
65271;SDS011;51868;48.812;8.198;2023-05-10T03:35:37;1.52;;;1.42;;
65271;SDS011;51868;48.812;8.198;2023-05-10T03:38:05;1.40;;;1.30;;
65271;SDS011;51868;48.812;8.198;2023-05-10T03:40:32;2.88;;;1.50;;
65271;SDS011;51868;48.812;8.198;2023-05-10T03:43:00;2.72;;;1.55;;
65271;SDS011;51868;48.812;8.198;2023-05-10T03:45:28;2.38;;;1.40;;
65271;SDS011;51868;48.812;8.198;2023-05-10T03:47:57;2.25;;;1.25;;
65271;SDS011;51868;48.812;8.198;2023-05-10T03:50:26;2.42;;;1.63;;
65271;SDS011;51868;48.812;8.198;2023-05-10T03:52:54;1.60;;;1.50;;
65271;SDS011;51868;48.812;8.198;2023-05-10T03:55:22;1.85;;;1.40;;
65271;SDS011;51868;48.812;8.198;2023-05-10T03:57:50;1.77;;;1.30;;
65271;SDS011;51868;48.812;8.198;2023-05-10T04:00:20;1.83;;;1.30;;
65271;SDS011;51868;48.812;8.198;2023-05-10T04:02:47;2.03;;;1.50;;
65271;SDS011;51868;48.812;8.198;2023-05-10T04:05:15;2.22;;;1.40;;
65271;SDS011;51868;48.812;8.198;2023-05-10T04:07:44;3.38;;;1.90;;
65271;SDS011;51868;48.812;8.198;2023-05-10T04:10:13;1.92;;;1.40;;
65271;SDS011;51868;48.812;8.198;2023-05-10T04:12:43;4.15;;;1.50;;
65271;SDS011;51868;48.812;8.198;2023-05-10T04:15:11;2.17;;;1.42;;
65271;SDS011;51868;48.812;8.198;2023-05-10T04:17:38;1.70;;;1.45;;
65271;SDS011;51868;48.812;8.198;2023-05-10T04:20:07;2.05;;;1.52;;
65271;SDS011;51868;48.812;8.198;2023-05-10T04:22:36;1.90;;;1.40;;
65271;SDS011;51868;48.812;8.198;2023-05-10T04:25:07;3.35;;;1.48;;
65271;SDS011;51868;48.812;8.198;2023-05-10T04:27:35;4.22;;;1.58;;
65271;SDS011;51868;48.812;8.198;2023-05-10T04:30:04;4.97;;;1.48;;
65271;SDS011;51868;48.812;8.198;2023-05-10T04:32:32;5.25;;;1.50;;
65271;SDS011;51868;48.812;8.198;2023-05-10T04:35:00;1.70;;;1.60;;
65271;SDS011;51868;48.812;8.198;2023-05-10T04:37:29;1.40;;;1.30;;
65271;SDS011;51868;48.812;8.198;2023-05-10T04:39:57;5.50;;;1.80;;
65271;SDS011;51868;48.812;8.198;2023-05-10T04:42:27;2.10;;;1.80;;
65271;SDS011;51868;48.812;8.198;2023-05-10T04:44:55;4.45;;;2.10;;
65271;SDS011;51868;48.812;8.198;2023-05-10T04:47:23;4.90;;;2.05;;
65271;SDS011;51868;48.812;8.198;2023-05-10T04:49:51;4.45;;;2.20;;
65271;SDS011;51868;48.812;8.198;2023-05-10T04:52:18;3.33;;;1.90;;
65271;SDS011;51868;48.812;8.198;2023-05-10T04:54:46;6.22;;;2.03;;
65271;SDS011;51868;48.812;8.198;2023-05-10T04:57:14;3.65;;;2.10;;
65271;SDS011;51868;48.812;8.198;2023-05-10T04:59:43;3.22;;;2.00;;
65271;SDS011;51868;48.812;8.198;2023-05-10T05:02:14;4.38;;;2.17;;
65271;SDS011;51868;48.812;8.198;2023-05-10T05:04:42;4.43;;;2.28;;
65271;SDS011;51868;48.812;8.198;2023-05-10T05:07:10;3.20;;;2.15;;
65271;SDS011;51868;48.812;8.198;2023-05-10T05:09:37;4.50;;;2.47;;
65271;SDS011;51868;48.812;8.198;2023-05-10T05:12:05;3.55;;;2.10;;
65271;SDS011;51868;48.812;8.198;2023-05-10T05:14:33;4.53;;;2.42;;
65271;SDS011;51868;48.812;8.198;2023-05-10T05:17:06;4.00;;;2.42;;
65271;SDS011;51868;48.812;8.198;2023-05-10T05:19:34;2.70;;;2.22;;
65271;SDS011;51868;48.812;8.198;2023-05-10T05:22:03;3.05;;;2.20;;
65271;SDS011;51868;48.812;8.198;2023-05-10T05:24:34;3.03;;;2.35;;
65271;SDS011;51868;48.812;8.198;2023-05-10T05:27:03;4.03;;;2.10;;
65271;SDS011;51868;48.812;8.198;2023-05-10T05:29:31;3.35;;;2.20;;
65271;SDS011;51868;48.812;8.198;2023-05-10T05:32:00;3.92;;;2.47;;
65271;SDS011;51868;48.812;8.198;2023-05-10T05:34:29;5.72;;;1.95;;
65271;SDS011;51868;48.812;8.198;2023-05-10T05:36:57;2.17;;;1.98;;
65271;SDS011;51868;48.812;8.198;2023-05-10T05:39:25;4.80;;;2.30;;
65271;SDS011;51868;48.812;8.198;2023-05-10T05:41:53;3.85;;;2.38;;
65271;SDS011;51868;48.812;8.198;2023-05-10T05:44:20;2.30;;;2.08;;
65271;SDS011;51868;48.812;8.198;2023-05-10T05:46:48;3.38;;;2.35;;
65271;SDS011;51868;48.812;8.198;2023-05-10T05:49:16;2.97;;;2.00;;
65271;SDS011;51868;48.812;8.198;2023-05-10T05:51:45;2.58;;;1.90;;
65271;SDS011;51868;48.812;8.198;2023-05-10T05:54:13;4.60;;;2.22;;
65271;SDS011;51868;48.812;8.198;2023-05-10T05:56:41;3.45;;;1.80;;
65271;SDS011;51868;48.812;8.198;2023-05-10T05:59:10;2.97;;;1.80;;
65271;SDS011;51868;48.812;8.198;2023-05-10T06:01:38;4.97;;;2.33;;
65271;SDS011;51868;48.812;8.198;2023-05-10T06:04:06;3.42;;;1.90;;
65271;SDS011;51868;48.812;8.198;2023-05-10T06:06:34;3.45;;;2.00;;
65271;SDS011;51868;48.812;8.198;2023-05-10T06:09:03;2.10;;;1.90;;
65271;SDS011;51868;48.812;8.198;2023-05-10T06:11:31;2.65;;;1.90;;
65271;SDS011;51868;48.812;8.198;2023-05-10T06:13:59;4.00;;;1.75;;
65271;SDS011;51868;48.812;8.198;2023-05-10T06:16:28;2.20;;;1.73;;
65271;SDS011;51868;48.812;8.198;2023-05-10T06:18:56;1.77;;;1.67;;
65271;SDS011;51868;48.812;8.198;2023-05-10T06:21:23;4.80;;;1.50;;
65271;SDS011;51868;48.812;8.198;2023-05-10T06:23:51;6.00;;;1.80;;
65271;SDS011;51868;48.812;8.198;2023-05-10T06:26:21;6.03;;;1.73;;
65271;SDS011;51868;48.812;8.198;2023-05-10T06:28:48;3.78;;;1.48;;
65271;SDS011;51868;48.812;8.198;2023-05-10T06:31:16;8.07;;;1.80;;
65271;SDS011;51868;48.812;8.198;2023-05-10T06:33:45;2.55;;;1.40;;
65271;SDS011;51868;48.812;8.198;2023-05-10T06:36:13;2.38;;;1.50;;
65271;SDS011;51868;48.812;8.198;2023-05-10T06:38:41;1.50;;;1.40;;
65271;SDS011;51868;48.812;8.198;2023-05-10T06:41:09;2.45;;;1.33;;
65271;SDS011;51868;48.812;8.198;2023-05-10T06:43:38;2.70;;;1.50;;
65271;SDS011;51868;48.812;8.198;2023-05-10T06:46:07;1.92;;;1.02;;
65271;SDS011;51868;48.812;8.198;2023-05-10T06:48:35;3.83;;;1.60;;
65271;SDS011;51868;48.812;8.198;2023-05-10T06:51:03;1.92;;;1.33;;
65271;SDS011;51868;48.812;8.198;2023-05-10T06:53:31;3.72;;;1.45;;
65271;SDS011;51868;48.812;8.198;2023-05-10T06:55:58;1.98;;;1.38;;
65271;SDS011;51868;48.812;8.198;2023-05-10T06:58:26;2.13;;;1.35;;
65271;SDS011;51868;48.812;8.198;2023-05-10T07:00:55;1.80;;;1.05;;
65271;SDS011;51868;48.812;8.198;2023-05-10T07:03:29;2.95;;;1.58;;
65271;SDS011;51868;48.812;8.198;2023-05-10T07:05:59;3.10;;;1.10;;
65271;SDS011;51868;48.812;8.198;2023-05-10T07:08:29;4.18;;;1.30;;
65271;SDS011;51868;48.812;8.198;2023-05-10T07:11:00;3.22;;;1.10;;
65271;SDS011;51868;48.812;8.198;2023-05-10T07:15:59;0.80;;;0.80;;
65271;SDS011;51868;48.812;8.198;2023-05-10T07:18:28;2.83;;;1.13;;
65271;SDS011;51868;48.812;8.198;2023-05-10T07:20:56;0.98;;;0.88;;
65271;SDS011;51868;48.812;8.198;2023-05-10T07:23:24;6.15;;;1.10;;
65271;SDS011;51868;48.812;8.198;2023-05-10T07:25:52;1.13;;;1.00;;
65271;SDS011;51868;48.812;8.198;2023-05-10T07:28:21;1.25;;;0.93;;
65271;SDS011;51868;48.812;8.198;2023-05-10T07:30:50;0.93;;;0.90;;
65271;SDS011;51868;48.812;8.198;2023-05-10T07:33:20;1.42;;;0.73;;
65271;SDS011;51868;48.812;8.198;2023-05-10T07:35:48;1.20;;;1.10;;
65271;SDS011;51868;48.812;8.198;2023-05-10T07:38:17;0.90;;;0.85;;
65271;SDS011;51868;48.812;8.198;2023-05-10T07:40:44;1.17;;;1.00;;
65271;SDS011;51868;48.812;8.198;2023-05-10T07:43:12;2.03;;;1.13;;
65271;SDS011;51868;48.812;8.198;2023-05-10T07:45:40;1.45;;;1.10;;
65271;SDS011;51868;48.812;8.198;2023-05-10T07:48:08;3.45;;;1.13;;
65271;SDS011;51868;48.812;8.198;2023-05-10T07:50:37;2.45;;;1.23;;
65271;SDS011;51868;48.812;8.198;2023-05-10T07:53:05;3.70;;;1.20;;
65271;SDS011;51868;48.812;8.198;2023-05-10T07:55:34;1.15;;;1.05;;
65271;SDS011;51868;48.812;8.198;2023-05-10T07:58:01;2.28;;;1.35;;
65271;SDS011;51868;48.812;8.198;2023-05-10T08:00:29;3.70;;;1.00;;
65271;SDS011;51868;48.812;8.198;2023-05-10T08:02:57;3.28;;;1.00;;
65271;SDS011;51868;48.812;8.198;2023-05-10T08:05:25;1.92;;;1.02;;
65271;SDS011;51868;48.812;8.198;2023-05-10T08:07:56;4.78;;;1.13;;
65271;SDS011;51868;48.812;8.198;2023-05-10T08:10:27;1.73;;;1.20;;
65271;SDS011;51868;48.812;8.198;2023-05-10T08:12:55;3.17;;;1.10;;
65271;SDS011;51868;48.812;8.198;2023-05-10T08:15:24;3.45;;;1.00;;
65271;SDS011;51868;48.812;8.198;2023-05-10T08:17:52;1.23;;;0.93;;
65271;SDS011;51868;48.812;8.198;2023-05-10T08:20:21;2.20;;;1.00;;
65271;SDS011;51868;48.812;8.198;2023-05-10T08:22:48;2.72;;;1.10;;
65271;SDS011;51868;48.812;8.198;2023-05-10T08:25:18;8.23;;;1.27;;
65271;SDS011;51868;48.812;8.198;2023-05-10T08:27:47;2.78;;;1.25;;
65271;SDS011;51868;48.812;8.198;2023-05-10T08:30:15;1.80;;;1.10;;
65271;SDS011;51868;48.812;8.198;2023-05-10T08:32:43;1.73;;;1.15;;
65271;SDS011;51868;48.812;8.198;2023-05-10T08:35:10;1.60;;;1.23;;
65271;SDS011;51868;48.812;8.198;2023-05-10T08:37:38;3.42;;;1.00;;
65271;SDS011;51868;48.812;8.198;2023-05-10T08:40:06;2.00;;;1.10;;
65271;SDS011;51868;48.812;8.198;2023-05-10T08:42:40;3.55;;;1.40;;
65271;SDS011;51868;48.812;8.198;2023-05-10T08:45:14;1.60;;;1.05;;
65271;SDS011;51868;48.812;8.198;2023-05-10T08:47:43;1.10;;;1.00;;
65271;SDS011;51868;48.812;8.198;2023-05-10T08:50:12;2.05;;;1.00;;
65271;SDS011;51868;48.812;8.198;2023-05-10T08:52:42;2.47;;;1.23;;
65271;SDS011;51868;48.812;8.198;2023-05-10T08:55:11;2.75;;;1.30;;
65271;SDS011;51868;48.812;8.198;2023-05-10T08:57:40;1.23;;;1.10;;
65271;SDS011;51868;48.812;8.198;2023-05-10T09:00:09;2.90;;;1.80;;
65271;SDS011;51868;48.812;8.198;2023-05-10T09:02:37;2.35;;;1.20;;
65271;SDS011;51868;48.812;8.198;2023-05-10T09:05:05;2.13;;;1.30;;
65271;SDS011;51868;48.812;8.198;2023-05-10T09:07:35;3.22;;;1.27;;
65271;SDS011;51868;48.812;8.198;2023-05-10T09:10:04;1.67;;;1.20;;
65271;SDS011;51868;48.812;8.198;2023-05-10T09:12:33;1.65;;;1.20;;
65271;SDS011;51868;48.812;8.198;2023-05-10T09:15:03;3.72;;;1.40;;
65271;SDS011;51868;48.812;8.198;2023-05-10T09:17:33;5.90;;;1.70;;
65271;SDS011;51868;48.812;8.198;2023-05-10T09:20:01;2.22;;;1.40;;
65271;SDS011;51868;48.812;8.198;2023-05-10T09:22:31;2.00;;;1.50;;
65271;SDS011;51868;48.812;8.198;2023-05-10T09:25:06;2.25;;;1.35;;
65271;SDS011;51868;48.812;8.198;2023-05-10T09:27:35;3.67;;;1.77;;
65271;SDS011;51868;48.812;8.198;2023-05-10T09:30:05;3.92;;;1.50;;
65271;SDS011;51868;48.812;8.198;2023-05-10T09:32:38;1.92;;;1.73;;
65271;SDS011;51868;48.812;8.198;2023-05-10T09:35:07;3.15;;;1.80;;
65271;SDS011;51868;48.812;8.198;2023-05-10T09:37:36;6.43;;;1.80;;
65271;SDS011;51868;48.812;8.198;2023-05-10T09:40:08;2.67;;;1.60;;
65271;SDS011;51868;48.812;8.198;2023-05-10T09:42:40;2.33;;;1.70;;
65271;SDS011;51868;48.812;8.198;2023-05-10T09:45:10;4.50;;;1.90;;
65271;SDS011;51868;48.812;8.198;2023-05-10T09:47:38;2.92;;;1.90;;
65271;SDS011;51868;48.812;8.198;2023-05-10T09:50:07;3.08;;;2.25;;
65271;SDS011;51868;48.812;8.198;2023-05-10T09:52:45;2.80;;;2.10;;
65271;SDS011;51868;48.812;8.198;2023-05-10T09:55:15;3.05;;;2.10;;
65271;SDS011;51868;48.812;8.198;2023-05-10T09:57:43;5.05;;;1.90;;
65271;SDS011;51868;48.812;8.198;2023-05-10T10:00:17;6.00;;;2.75;;
65271;SDS011;51868;48.812;8.198;2023-05-10T10:02:47;3.25;;;2.00;;
65271;SDS011;51868;48.812;8.198;2023-05-10T10:05:21;1.95;;;1.55;;
65271;SDS011;51868;48.812;8.198;2023-05-10T10:07:55;3.85;;;1.90;;
65271;SDS011;51868;48.812;8.198;2023-05-10T10:10:24;2.92;;;1.70;;
65271;SDS011;51868;48.812;8.198;2023-05-10T10:12:52;3.88;;;2.15;;
65271;SDS011;51868;48.812;8.198;2023-05-10T10:15:21;1.80;;;1.50;;
65271;SDS011;51868;48.812;8.198;2023-05-10T10:17:51;3.70;;;1.58;;
65271;SDS011;51868;48.812;8.198;2023-05-10T10:20:20;4.72;;;1.35;;
65271;SDS011;51868;48.812;8.198;2023-05-10T10:22:50;3.17;;;1.42;;
65271;SDS011;51868;48.812;8.198;2023-05-10T10:25:18;1.27;;;1.02;;
65271;SDS011;51868;48.812;8.198;2023-05-10T10:28:08;2.30;;;1.20;;
65271;SDS011;51868;48.812;8.198;2023-05-10T10:30:45;1.83;;;0.80;;
65271;SDS011;51868;48.812;8.198;2023-05-10T10:33:28;2.35;;;1.10;;
65271;SDS011;51868;48.812;8.198;2023-05-10T10:36:04;2.75;;;0.90;;
65271;SDS011;51868;48.812;8.198;2023-05-10T10:38:35;5.28;;;1.00;;
65271;SDS011;51868;48.812;8.198;2023-05-10T10:43:36;2.03;;;1.00;;
65271;SDS011;51868;48.812;8.198;2023-05-10T10:46:14;3.35;;;1.23;;
65271;SDS011;51868;48.812;8.198;2023-05-10T10:48:47;2.42;;;0.90;;
65271;SDS011;51868;48.812;8.198;2023-05-10T10:51:15;2.95;;;1.13;;
65271;SDS011;51868;48.812;8.198;2023-05-10T10:53:43;2.75;;;1.00;;
65271;SDS011;51868;48.812;8.198;2023-05-10T10:56:11;3.60;;;1.10;;
65271;SDS011;51868;48.812;8.198;2023-05-10T10:58:42;2.65;;;0.90;;
65271;SDS011;51868;48.812;8.198;2023-05-10T11:01:19;4.13;;;0.98;;
65271;SDS011;51868;48.812;8.198;2023-05-10T11:06:46;2.20;;;0.80;;
65271;SDS011;51868;48.812;8.198;2023-05-10T11:09:14;3.97;;;0.85;;
65271;SDS011;51868;48.812;8.198;2023-05-10T11:11:48;2.80;;;0.90;;
65271;SDS011;51868;48.812;8.198;2023-05-10T11:14:19;3.10;;;1.00;;
65271;SDS011;51868;48.812;8.198;2023-05-10T11:16:50;2.85;;;1.45;;
65271;SDS011;51868;48.812;8.198;2023-05-10T11:19:18;1.63;;;1.02;;
65271;SDS011;51868;48.812;8.198;2023-05-10T11:21:47;4.28;;;1.10;;
65271;SDS011;51868;48.812;8.198;2023-05-10T11:24:17;4.15;;;1.30;;
65271;SDS011;51868;48.812;8.198;2023-05-10T11:26:46;3.53;;;1.10;;
65271;SDS011;51868;48.812;8.198;2023-05-10T11:29:19;1.38;;;0.80;;
65271;SDS011;51868;48.812;8.198;2023-05-10T11:31:47;4.22;;;0.90;;
65271;SDS011;51868;48.812;8.198;2023-05-10T11:34:24;1.35;;;0.90;;
65271;SDS011;51868;48.812;8.198;2023-05-10T11:36:52;3.20;;;1.10;;
65271;SDS011;51868;48.812;8.198;2023-05-10T11:39:25;2.05;;;0.90;;
65271;SDS011;51868;48.812;8.198;2023-05-10T11:41:53;2.53;;;0.75;;
65271;SDS011;51868;48.812;8.198;2023-05-10T11:44:22;0.70;;;0.70;;
65271;SDS011;51868;48.812;8.198;2023-05-10T11:46:50;0.70;;;0.70;;
65271;SDS011;51868;48.812;8.198;2023-05-10T11:49:18;2.03;;;1.17;;
65271;SDS011;51868;48.812;8.198;2023-05-10T11:51:47;1.88;;;0.80;;
65271;SDS011;51868;48.812;8.198;2023-05-10T11:54:14;1.17;;;0.80;;
65271;SDS011;51868;48.812;8.198;2023-05-10T11:56:42;5.50;;;1.08;;
65271;SDS011;51868;48.812;8.198;2023-05-10T11:59:13;2.50;;;0.85;;
65271;SDS011;51868;48.812;8.198;2023-05-10T12:01:41;1.40;;;0.90;;
65271;SDS011;51868;48.812;8.198;2023-05-10T12:04:09;1.38;;;1.00;;
65271;SDS011;51868;48.812;8.198;2023-05-10T12:06:39;1.45;;;0.70;;
65271;SDS011;51868;48.812;8.198;2023-05-10T12:09:11;1.20;;;0.80;;
65271;SDS011;51868;48.812;8.198;2023-05-10T12:11:40;0.97;;;0.70;;
65271;SDS011;51868;48.812;8.198;2023-05-10T12:14:10;0.75;;;0.70;;
65271;SDS011;51868;48.812;8.198;2023-05-10T12:16:38;1.10;;;0.75;;
65271;SDS011;51868;48.812;8.198;2023-05-10T12:19:06;2.03;;;0.95;;
65271;SDS011;51868;48.812;8.198;2023-05-10T12:21:34;1.67;;;0.70;;
65271;SDS011;51868;48.812;8.198;2023-05-10T12:24:03;2.00;;;0.70;;
65271;SDS011;51868;48.812;8.198;2023-05-10T12:26:32;1.35;;;0.60;;
65271;SDS011;51868;48.812;8.198;2023-05-10T12:29:12;1.10;;;0.57;;
65271;SDS011;51868;48.812;8.198;2023-05-10T12:31:51;2.75;;;0.80;;
65271;SDS011;51868;48.812;8.198;2023-05-10T12:34:24;2.60;;;0.70;;
65271;SDS011;51868;48.812;8.198;2023-05-10T12:36:57;1.30;;;0.70;;
65271;SDS011;51868;48.812;8.198;2023-05-10T12:39:26;2.45;;;0.80;;
65271;SDS011;51868;48.812;8.198;2023-05-10T12:41:55;2.83;;;0.57;;
65271;SDS011;51868;48.812;8.198;2023-05-10T12:44:23;1.50;;;0.63;;
65271;SDS011;51868;48.812;8.198;2023-05-10T12:46:51;2.35;;;0.70;;
65271;SDS011;51868;48.812;8.198;2023-05-10T12:49:19;3.45;;;0.73;;
65271;SDS011;51868;48.812;8.198;2023-05-10T12:51:48;0.90;;;0.70;;
65271;SDS011;51868;48.812;8.198;2023-05-10T12:54:23;3.50;;;0.80;;
65271;SDS011;51868;48.812;8.198;2023-05-10T12:56:53;0.70;;;0.70;;
65271;SDS011;51868;48.812;8.198;2023-05-10T12:59:22;2.25;;;1.02;;
65271;SDS011;51868;48.812;8.198;2023-05-10T13:01:50;1.98;;;0.90;;
65271;SDS011;51868;48.812;8.198;2023-05-10T13:04:17;1.38;;;0.80;;
65271;SDS011;51868;48.812;8.198;2023-05-10T13:06:45;1.23;;;0.80;;
65271;SDS011;51868;48.812;8.198;2023-05-10T13:09:13;1.10;;;0.73;;
65271;SDS011;51868;48.812;8.198;2023-05-10T13:11:41;1.92;;;0.85;;
65271;SDS011;51868;48.812;8.198;2023-05-10T13:14:10;3.15;;;1.00;;
65271;SDS011;51868;48.812;8.198;2023-05-10T13:16:38;2.00;;;0.80;;
65271;SDS011;51868;48.812;8.198;2023-05-10T13:19:06;5.70;;;0.95;;
65271;SDS011;51868;48.812;8.198;2023-05-10T13:21:34;1.92;;;0.93;;
65271;SDS011;51868;48.812;8.198;2023-05-10T13:24:02;0.85;;;0.77;;
65271;SDS011;51868;48.812;8.198;2023-05-10T13:26:31;2.55;;;0.75;;
65271;SDS011;51868;48.812;8.198;2023-05-10T13:28:59;0.85;;;0.60;;
65271;SDS011;51868;48.812;8.198;2023-05-10T13:31:28;1.95;;;0.85;;
65271;SDS011;51868;48.812;8.198;2023-05-10T13:33:57;1.25;;;0.70;;
65271;SDS011;51868;48.812;8.198;2023-05-10T13:36:24;4.35;;;0.82;;
65271;SDS011;51868;48.812;8.198;2023-05-10T13:38:52;1.05;;;0.60;;
65271;SDS011;51868;48.812;8.198;2023-05-10T13:41:20;1.02;;;0.70;;
65271;SDS011;51868;48.812;8.198;2023-05-10T13:43:48;0.93;;;0.68;;
65271;SDS011;51868;48.812;8.198;2023-05-10T13:46:16;1.25;;;0.80;;
65271;SDS011;51868;48.812;8.198;2023-05-10T13:48:45;2.60;;;0.77;;
65271;SDS011;51868;48.812;8.198;2023-05-10T13:51:13;3.33;;;0.85;;
65271;SDS011;51868;48.812;8.198;2023-05-10T13:53:40;1.15;;;0.98;;
65271;SDS011;51868;48.812;8.198;2023-05-10T13:56:08;0.90;;;0.75;;
65271;SDS011;51868;48.812;8.198;2023-05-10T13:58:36;2.08;;;0.70;;
65271;SDS011;51868;48.812;8.198;2023-05-10T14:01:04;4.18;;;0.90;;
65271;SDS011;51868;48.812;8.198;2023-05-10T14:03:33;1.60;;;0.70;;
65271;SDS011;51868;48.812;8.198;2023-05-10T14:06:03;1.13;;;0.73;;
65271;SDS011;51868;48.812;8.198;2023-05-10T14:08:31;1.02;;;0.80;;
65271;SDS011;51868;48.812;8.198;2023-05-10T14:10:59;1.33;;;0.90;;
65271;SDS011;51868;48.812;8.198;2023-05-10T14:13:26;2.55;;;0.77;;
65271;SDS011;51868;48.812;8.198;2023-05-10T14:15:54;1.65;;;0.70;;
65271;SDS011;51868;48.812;8.198;2023-05-10T14:18:22;0.82;;;0.70;;
65271;SDS011;51868;48.812;8.198;2023-05-10T14:20:50;1.48;;;0.90;;
65271;SDS011;51868;48.812;8.198;2023-05-10T14:23:19;0.80;;;0.80;;
65271;SDS011;51868;48.812;8.198;2023-05-10T14:25:50;0.60;;;0.60;;
65271;SDS011;51868;48.812;8.198;2023-05-10T14:28:22;2.13;;;0.88;;
65271;SDS011;51868;48.812;8.198;2023-05-10T14:30:51;2.60;;;0.95;;
65271;SDS011;51868;48.812;8.198;2023-05-10T14:33:18;3.88;;;0.80;;
65271;SDS011;51868;48.812;8.198;2023-05-10T14:35:47;1.83;;;0.70;;
65271;SDS011;51868;48.812;8.198;2023-05-10T14:38:15;1.60;;;1.08;;
65271;SDS011;51868;48.812;8.198;2023-05-10T14:40:44;1.38;;;0.73;;
65271;SDS011;51868;48.812;8.198;2023-05-10T14:43:13;1.27;;;0.65;;
65271;SDS011;51868;48.812;8.198;2023-05-10T14:45:41;0.98;;;0.63;;
65271;SDS011;51868;48.812;8.198;2023-05-10T14:48:09;0.80;;;0.70;;
65271;SDS011;51868;48.812;8.198;2023-05-10T14:50:41;4.00;;;0.77;;
65271;SDS011;51868;48.812;8.198;2023-05-10T14:53:09;1.95;;;0.90;;
65271;SDS011;51868;48.812;8.198;2023-05-10T14:55:37;0.73;;;0.73;;
65271;SDS011;51868;48.812;8.198;2023-05-10T14:58:06;1.65;;;0.65;;
65271;SDS011;51868;48.812;8.198;2023-05-10T15:00:34;1.00;;;0.70;;
65271;SDS011;51868;48.812;8.198;2023-05-10T15:03:02;0.68;;;0.68;;
65271;SDS011;51868;48.812;8.198;2023-05-10T15:05:31;3.17;;;0.82;;
65271;SDS011;51868;48.812;8.198;2023-05-10T15:07:59;1.23;;;1.10;;
65271;SDS011;51868;48.812;8.198;2023-05-10T15:10:27;1.10;;;0.95;;
65271;SDS011;51868;48.812;8.198;2023-05-10T15:12:54;1.95;;;1.15;;
65271;SDS011;51868;48.812;8.198;2023-05-10T15:15:23;7.00;;;0.88;;
65271;SDS011;51868;48.812;8.198;2023-05-10T15:17:51;1.45;;;1.00;;